createdAt,value
2019-05-11T00:01:53.012Z,7.10
2019-05-11T00:04:21.459Z,7.00
2019-05-11T00:06:49.965Z,7.00
2019-05-11T00:09:18.404Z,7.00
2019-05-11T00:11:46.869Z,6.90
2019-05-11T00:14:15.413Z,6.90
2019-05-11T00:16:43.941Z,6.90
2019-05-11T00:19:12.491Z,6.90
2019-05-11T00:21:41.097Z,6.90
2019-05-11T00:24:09.571Z,6.90
2019-05-11T00:26:38.354Z,6.90
2019-05-11T00:29:06.868Z,6.90
2019-05-11T00:31:35.317Z,6.90
2019-05-11T00:34:03.854Z,6.90
2019-05-11T00:36:32.360Z,6.90
2019-05-11T00:39:00.810Z,6.90
2019-05-11T00:41:29.260Z,6.80
2019-05-11T00:43:57.829Z,6.80
2019-05-11T00:46:26.352Z,6.80
2019-05-11T00:48:54.870Z,6.80
2019-05-11T00:51:24.010Z,6.80
2019-05-11T00:53:52.469Z,6.80
2019-05-11T00:56:21.009Z,6.80
2019-05-11T00:58:51.032Z,6.80
2019-05-11T01:01:19.709Z,6.80
2019-05-11T01:03:48.156Z,6.80
2019-05-11T01:06:16.749Z,6.70
2019-05-11T01:08:45.265Z,6.70
2019-05-11T01:11:13.716Z,6.70
2019-05-11T01:13:42.214Z,6.70
2019-05-11T01:16:10.678Z,6.60
2019-05-11T01:18:39.193Z,6.60
2019-05-11T01:21:07.683Z,6.50
2019-05-11T01:23:36.145Z,6.50
2019-05-11T01:26:04.657Z,6.50
2019-05-11T01:28:33.133Z,6.40
2019-05-11T01:31:01.758Z,6.40
2019-05-11T01:33:30.215Z,6.40
2019-05-11T01:35:58.780Z,6.30
2019-05-11T01:38:27.227Z,6.30
2019-05-11T01:40:58.567Z,6.20
2019-05-11T01:43:25.886Z,6.20
2019-05-11T01:45:54.420Z,6.20
2019-05-11T01:48:22.955Z,6.10
2019-05-11T01:50:51.442Z,6.10
2019-05-11T01:53:39.305Z,6.00
2019-05-11T01:56:07.820Z,5.90
2019-05-11T01:58:36.333Z,5.90
2019-05-11T02:01:05.053Z,5.80
2019-05-11T02:03:33.613Z,5.80
2019-05-11T02:06:02.067Z,5.70
2019-05-11T02:08:30.663Z,5.60
2019-05-11T02:11:14.939Z,5.50
2019-05-11T02:13:29.320Z,5.40
2019-05-11T02:15:57.765Z,5.30
2019-05-11T02:18:26.300Z,5.30
2019-05-11T02:20:54.779Z,5.20
2019-05-11T02:23:24.084Z,5.20
2019-05-11T02:25:52.589Z,5.10
2019-05-11T02:28:21.031Z,5.10
2019-05-11T02:30:49.499Z,5.00
2019-05-11T02:33:18.026Z,5.00
2019-05-11T02:35:46.475Z,4.90
2019-05-11T02:38:15.269Z,4.90
2019-05-11T02:40:43.915Z,4.80
2019-05-11T02:43:12.363Z,4.80
2019-05-11T02:45:43.372Z,4.80
2019-05-11T02:48:12.184Z,4.70
2019-05-11T02:50:40.793Z,4.60
2019-05-11T02:53:10.753Z,4.50
2019-05-11T02:55:39.570Z,4.50
2019-05-11T02:58:08.661Z,4.50
2019-05-11T03:00:42.390Z,4.50
2019-05-11T03:03:11.237Z,4.50
2019-05-11T03:05:39.951Z,4.50
2019-05-11T03:08:08.480Z,4.50
2019-05-11T03:10:38.667Z,4.40
2019-05-11T03:13:07.200Z,4.40
2019-05-11T03:15:35.722Z,4.30
2019-05-11T03:18:04.429Z,4.10
2019-05-11T03:20:32.947Z,4.10
2019-05-11T03:23:01.455Z,4.00
2019-05-11T03:25:29.942Z,4.10
2019-05-11T03:27:58.463Z,4.10
2019-05-11T03:30:26.900Z,4.10
2019-05-11T03:32:55.393Z,4.10
2019-05-11T03:35:23.906Z,4.10
2019-05-11T03:37:52.432Z,4.10
2019-05-11T03:40:20.989Z,4.10
2019-05-11T03:42:49.439Z,4.10
2019-05-11T03:45:17.953Z,4.10
2019-05-11T03:47:46.454Z,4.10
2019-05-11T03:50:15.201Z,4.20
2019-05-11T03:52:43.669Z,4.20
2019-05-11T03:55:13.401Z,4.30
2019-05-11T03:57:41.905Z,4.30
2019-05-11T04:00:10.623Z,4.40
2019-05-11T04:02:39.177Z,4.40
2019-05-11T04:05:07.988Z,4.50
2019-05-11T04:07:36.451Z,4.60
2019-05-11T04:10:06.755Z,4.70
2019-05-11T04:12:35.834Z,4.70
2019-05-11T04:15:07.299Z,4.80
2019-05-11T04:17:35.821Z,4.90
2019-05-11T04:20:05.896Z,5.00
2019-05-11T04:22:34.578Z,5.10
2019-05-11T04:25:03.622Z,5.10
2019-05-11T04:27:32.081Z,5.20
2019-05-11T04:30:00.665Z,5.30
2019-05-11T04:32:29.231Z,5.40
2019-05-11T04:34:57.681Z,5.50
2019-05-11T04:37:26.138Z,5.60
2019-05-11T04:39:54.684Z,5.60
2019-05-11T04:42:23.139Z,5.70
2019-05-11T04:44:52.480Z,5.80
2019-05-11T04:47:21.254Z,5.80
2019-05-11T04:49:49.788Z,5.90
2019-05-11T04:52:18.555Z,6.00
2019-05-11T04:54:47.151Z,6.10
2019-05-11T04:57:15.652Z,6.20
2019-05-11T04:59:44.124Z,6.30
2019-05-11T05:02:12.689Z,6.30
2019-05-11T05:04:41.150Z,6.40
2019-05-11T05:07:10.594Z,6.50
2019-05-11T05:09:42.586Z,6.60
2019-05-11T05:12:13.993Z,6.70
2019-05-11T05:14:40.255Z,6.70
2019-05-11T05:17:09.008Z,6.80
2019-05-11T05:19:37.515Z,6.90
2019-05-11T05:22:05.960Z,6.90
2019-05-11T05:24:34.462Z,7.00
2019-05-11T05:27:02.916Z,7.10
2019-05-11T05:29:31.448Z,7.20
2019-05-11T05:31:59.925Z,7.20
2019-05-11T05:34:28.391Z,7.30
2019-05-11T05:36:56.853Z,7.30
2019-05-11T05:39:25.435Z,7.40
2019-05-11T05:41:57.243Z,7.40
2019-05-11T05:44:27.513Z,7.40
2019-05-11T05:46:54.415Z,7.50
2019-05-11T05:49:22.862Z,7.70
2019-05-11T05:51:51.397Z,7.70
2019-05-11T05:54:19.989Z,7.90
2019-05-11T05:56:48.618Z,7.90
2019-05-11T05:59:17.074Z,7.80
2019-05-11T06:01:45.639Z,7.80
2019-05-11T06:04:14.104Z,7.80
2019-05-11T06:06:42.700Z,7.90
2019-05-11T06:09:12.399Z,8.00
2019-05-11T06:11:40.835Z,8.10
2019-05-11T06:14:09.328Z,8.20
2019-05-11T06:16:37.914Z,8.20
2019-05-11T06:19:06.374Z,8.20
2019-05-11T06:21:34.846Z,8.30
2019-05-11T06:24:07.064Z,8.40
2019-05-11T06:26:33.655Z,8.40
2019-05-11T06:29:02.104Z,8.50
2019-05-11T06:31:32.247Z,8.60
2019-05-11T06:34:00.791Z,8.50
2019-05-11T06:36:29.472Z,8.60
2019-05-11T06:38:58.022Z,8.70
2019-05-11T06:41:26.578Z,8.60
2019-05-11T06:44:01.888Z,8.40
2019-05-11T06:46:25.353Z,8.30
2019-05-11T06:48:53.875Z,8.40
2019-05-11T06:51:22.418Z,8.60
2019-05-11T06:53:50.977Z,8.70
2019-05-11T06:56:19.581Z,8.60
2019-05-11T06:58:48.039Z,8.80
2019-05-11T07:01:16.708Z,8.90
2019-05-11T07:03:45.245Z,9.00
2019-05-11T07:06:13.799Z,8.90
2019-05-11T07:08:42.319Z,8.80
2019-05-11T07:11:10.836Z,8.70
2019-05-11T07:13:40.820Z,8.80
2019-05-11T07:16:09.375Z,9.00
2019-05-11T07:18:37.845Z,9.20
2019-05-11T07:21:06.388Z,9.20
2019-05-11T07:23:34.904Z,9.10
2019-05-11T07:26:03.435Z,9.40
2019-05-11T07:28:32.019Z,9.80
2019-05-11T07:31:00.520Z,9.60
2019-05-11T07:33:29.005Z,9.30
2019-05-11T07:35:58.237Z,9.30
2019-05-11T07:38:27.802Z,9.10
2019-05-11T07:40:58.276Z,9.30
2019-05-11T07:43:28.778Z,9.40
2019-05-11T07:46:02.792Z,9.30
2019-05-11T07:48:33.394Z,9.40
2019-05-11T07:51:08.912Z,9.60
2019-05-11T07:53:40.366Z,9.80
2019-05-11T07:56:09.494Z,9.90
2019-05-11T07:58:49.254Z,9.90
2019-05-11T08:01:19.061Z,9.70
2019-05-11T08:03:48.471Z,9.60
2019-05-11T08:06:21.214Z,9.80
2019-05-11T08:08:54.500Z,9.90
2019-05-11T08:11:28.880Z,9.70
2019-05-11T08:13:58.253Z,9.80
2019-05-11T08:16:34.570Z,10.00
2019-05-11T08:19:10.782Z,10.10
2019-05-11T08:21:39.312Z,10.10
2019-05-11T08:24:18.043Z,10.00
2019-05-11T08:26:48.051Z,10.20
2019-05-11T08:29:18.425Z,10.10
2019-05-11T08:31:48.609Z,9.90
2019-05-11T08:34:18.049Z,9.80
2019-05-11T08:36:48.014Z,9.60
2019-05-11T08:39:18.188Z,9.70
2019-05-11T08:41:48.734Z,10.00
2019-05-11T08:44:18.215Z,10.20
2019-05-11T08:46:47.851Z,10.20
2019-05-11T08:49:18.904Z,10.20
2019-05-11T08:51:47.832Z,10.20
2019-05-11T08:54:18.331Z,10.20
2019-05-11T08:56:48.688Z,10.20
2019-05-11T08:59:18.642Z,10.30
2019-05-11T09:01:48.380Z,10.30
2019-05-11T09:04:18.235Z,10.30
2019-05-11T09:06:47.917Z,10.40
2019-05-11T09:09:18.095Z,10.50
2019-05-11T09:11:48.125Z,10.60
2019-05-11T09:14:18.868Z,10.60
2019-05-11T09:16:48.943Z,10.60
2019-05-11T09:19:17.865Z,10.50
2019-05-11T09:21:48.178Z,10.60
2019-05-11T09:24:18.762Z,10.60
2019-05-11T09:26:47.901Z,10.70
2019-05-11T09:29:36.030Z,10.90
2019-05-11T09:32:04.688Z,10.40
2019-05-11T09:34:33.217Z,10.40
2019-05-11T09:37:01.666Z,10.50
2019-05-11T09:39:30.185Z,10.50
2019-05-11T09:41:58.708Z,10.60
2019-05-11T09:44:28.886Z,10.70
2019-05-11T09:47:02.267Z,10.80
2019-05-11T09:49:43.336Z,10.80
2019-05-11T09:51:58.879Z,10.90
2019-05-11T09:54:28.925Z,10.70
2019-05-11T09:56:57.950Z,10.70
2019-05-11T09:59:28.158Z,11.00
2019-05-11T10:01:58.917Z,10.80
2019-05-11T10:04:28.816Z,11.10
2019-05-11T10:06:58.517Z,11.10
2019-05-11T10:09:27.990Z,11.10
2019-05-11T10:11:58.483Z,11.30
2019-05-11T10:14:28.880Z,11.20
2019-05-11T10:16:58.462Z,11.10
2019-05-11T10:19:28.431Z,11.20
2019-05-11T10:21:58.024Z,11.40
2019-05-11T10:24:28.395Z,11.50
2019-05-11T10:26:57.833Z,11.40
2019-05-11T10:29:28.682Z,11.40
2019-05-11T10:31:58.743Z,11.60
2019-05-11T10:34:28.496Z,11.60
2019-05-11T10:36:57.945Z,11.60
2019-05-11T10:39:27.905Z,11.50
2019-05-11T10:41:58.417Z,11.60
2019-05-11T10:44:28.108Z,11.70
2019-05-11T10:46:58.933Z,11.60
2019-05-11T10:49:28.863Z,11.60
2019-05-11T10:51:58.719Z,11.70
2019-05-11T10:54:28.785Z,11.60
2019-05-11T10:56:58.019Z,11.70
2019-05-11T10:59:28.241Z,11.70
2019-05-11T11:01:59.064Z,11.70
2019-05-11T11:04:28.747Z,11.70
2019-05-11T11:06:59.181Z,11.60
2019-05-11T11:09:28.346Z,11.70
2019-05-11T11:11:57.880Z,11.80
2019-05-11T11:14:28.721Z,11.90
2019-05-11T11:16:58.412Z,11.90
2019-05-11T11:19:28.996Z,12.10
2019-05-11T11:22:28.528Z,12.10
2019-05-11T11:24:30.629Z,12.10
2019-05-11T11:26:59.089Z,12.00
2019-05-11T11:29:28.769Z,12.20
2019-05-11T11:31:58.720Z,12.20
2019-05-11T11:34:28.059Z,12.10
2019-05-11T11:36:58.069Z,12.30
2019-05-11T11:39:28.386Z,12.20
2019-05-11T11:41:58.575Z,12.20
2019-05-11T11:44:28.612Z,12.30
2019-05-11T11:46:58.994Z,12.40
2019-05-11T11:49:28.242Z,12.50
2019-05-11T11:51:57.731Z,12.40
2019-05-11T11:54:28.808Z,12.30
2019-05-11T11:56:59.002Z,12.50
2019-05-11T11:59:28.647Z,12.60
2019-05-11T12:01:58.187Z,12.50
2019-05-11T12:04:28.279Z,12.50
2019-05-11T12:06:58.105Z,12.60
2019-05-11T12:09:28.703Z,12.70
2019-05-11T12:11:58.153Z,12.80
2019-05-11T12:14:28.325Z,12.80
2019-05-11T12:17:07.488Z,12.80
2019-05-11T12:19:28.006Z,13.10
2019-05-11T12:21:57.999Z,12.90
2019-05-11T12:24:28.783Z,12.90
2019-05-11T12:26:58.722Z,12.90
2019-05-11T12:29:28.125Z,13.10
2019-05-11T12:31:58.904Z,13.10
2019-05-11T12:34:28.336Z,13.20
2019-05-11T12:36:58.111Z,13.20
2019-05-11T12:39:28.232Z,13.20
2019-05-11T12:41:58.202Z,13.30
2019-05-11T12:44:28.454Z,13.30
2019-05-11T12:46:58.351Z,13.40
2019-05-11T12:49:28.889Z,13.40
2019-05-11T12:51:58.095Z,13.40
2019-05-11T12:54:28.022Z,13.20
2019-05-11T12:56:57.958Z,13.10
2019-05-11T12:59:27.848Z,13.20
2019-05-11T13:01:58.823Z,13.10
2019-05-11T13:04:47.717Z,12.90
2019-05-11T13:07:19.540Z,13.10
2019-05-11T13:09:48.477Z,13.00
2019-05-11T13:12:18.650Z,13.10
2019-05-11T13:14:48.833Z,13.20
2019-05-11T13:17:34.157Z,13.00
2019-05-11T13:19:50.820Z,13.10
2019-05-11T13:22:19.483Z,13.30
2019-05-11T13:24:48.298Z,13.20
2019-05-11T13:27:18.768Z,13.10
2019-05-11T13:29:48.618Z,13.20
2019-05-11T13:32:18.645Z,13.00
2019-05-11T13:34:48.024Z,13.10
2019-05-11T13:37:18.789Z,13.30
2019-05-11T13:39:48.588Z,13.10
2019-05-11T13:42:19.498Z,13.10
2019-05-11T13:44:47.976Z,13.00
2019-05-11T13:47:19.283Z,13.10
2019-05-11T13:49:48.048Z,13.10
2019-05-11T13:52:17.997Z,13.20
2019-05-11T13:54:48.236Z,13.20
2019-05-11T13:57:20.117Z,13.30
2019-05-11T13:59:48.633Z,13.30
2019-05-11T14:02:18.010Z,13.20
2019-05-11T14:04:48.105Z,13.50
2019-05-11T14:07:18.619Z,13.70
2019-05-11T14:09:48.528Z,13.60
2019-05-11T14:12:18.193Z,13.80
2019-05-11T14:14:48.117Z,14.30
2019-05-11T14:17:18.811Z,14.40
2019-05-11T14:19:49.357Z,14.50
2019-05-11T14:22:17.975Z,14.80
2019-05-11T14:24:48.258Z,15.10
2019-05-11T14:27:18.091Z,15.50
2019-05-11T14:29:48.695Z,15.80
2019-05-11T14:32:17.702Z,15.80
2019-05-11T14:34:48.335Z,15.80
2019-05-11T14:37:18.069Z,16.20
2019-05-11T14:39:48.178Z,16.00
2019-05-11T14:42:21.904Z,16.10
2019-05-11T14:44:48.256Z,16.40
2019-05-11T14:47:38.393Z,16.40
2019-05-11T14:50:08.606Z,16.30
2019-05-11T14:52:38.844Z,16.30
2019-05-11T14:55:08.335Z,16.70
2019-05-11T14:57:39.375Z,16.60
2019-05-11T15:00:10.725Z,16.80
2019-05-11T15:02:45.426Z,16.50
2019-05-11T15:05:18.225Z,16.80
2019-05-11T15:07:47.937Z,16.70
2019-05-11T15:10:18.733Z,16.90
2019-05-11T15:12:48.827Z,16.70
2019-05-11T15:15:27.904Z,16.90
2019-05-11T15:17:58.109Z,17.20
2019-05-11T15:20:28.598Z,17.00
2019-05-11T15:22:58.181Z,17.00
2019-05-11T15:25:28.943Z,17.10
2019-05-11T15:27:58.429Z,17.10
2019-05-11T15:30:28.723Z,17.00
2019-05-11T15:32:58.408Z,16.90
2019-05-11T15:35:28.580Z,17.20
2019-05-11T15:37:58.263Z,17.00
2019-05-11T15:40:27.862Z,16.90
2019-05-11T15:42:58.566Z,16.90
2019-05-11T15:45:27.917Z,17.20
2019-05-11T15:47:58.709Z,16.90
2019-05-11T15:50:29.107Z,16.90
2019-05-11T15:52:58.195Z,16.70
2019-05-11T15:55:27.781Z,16.60
2019-05-11T15:57:56.728Z,15.50
2019-05-11T16:00:25.436Z,15.10
2019-05-11T16:02:54.100Z,14.60
2019-05-11T16:05:22.785Z,14.30
2019-05-11T16:07:51.328Z,14.10
2019-05-11T16:10:20.119Z,14.00
2019-05-11T16:12:49.123Z,13.70
2019-05-11T16:15:19.702Z,13.30
2019-05-11T16:17:49.270Z,13.20
2019-05-11T16:20:18.399Z,13.10
2019-05-11T16:22:47.928Z,13.10
2019-05-11T16:25:19.819Z,13.10
2019-05-11T16:27:47.516Z,12.90
2019-05-11T16:30:20.871Z,13.00
2019-05-11T16:32:48.041Z,13.10
2019-05-11T16:35:18.064Z,13.20
2019-05-11T16:37:48.726Z,13.10
2019-05-11T16:40:20.298Z,13.10
2019-05-11T16:42:47.882Z,13.00
2019-05-11T16:45:19.090Z,12.80
2019-05-11T16:47:48.218Z,12.60
2019-05-11T16:50:18.574Z,12.70
2019-05-11T16:52:48.436Z,12.60
2019-05-11T16:55:18.319Z,12.50
2019-05-11T16:57:48.342Z,12.40
2019-05-11T17:00:17.613Z,12.40
2019-05-11T17:02:48.675Z,12.30
2019-05-11T17:05:25.830Z,12.30
2019-05-11T17:07:48.377Z,12.20
2019-05-11T17:10:18.106Z,12.20
2019-05-11T17:12:48.433Z,12.30
2019-05-11T17:15:18.495Z,12.20
2019-05-11T17:17:48.697Z,12.20
2019-05-11T17:20:19.174Z,12.20
2019-05-11T17:22:48.502Z,12.30
2019-05-11T17:25:19.381Z,12.20
2019-05-11T17:27:48.687Z,12.20
2019-05-11T17:30:21.060Z,12.00
2019-05-11T17:32:49.827Z,12.10
2019-05-11T17:35:18.899Z,12.10
2019-05-11T17:37:48.632Z,12.00
2019-05-11T17:40:22.391Z,11.90
2019-05-11T17:42:48.388Z,11.80
2019-05-11T17:45:18.930Z,11.70
2019-05-11T17:47:47.265Z,11.60
2019-05-11T17:50:16.034Z,11.70
2019-05-11T17:52:44.564Z,11.60
2019-05-11T17:55:13.357Z,11.50
2019-05-11T17:57:42.272Z,11.40
2019-05-11T18:00:11.365Z,11.40
2019-05-11T18:02:39.862Z,11.30
2019-05-11T18:05:09.219Z,11.30
2019-05-11T18:07:38.577Z,11.10
2019-05-11T18:10:08.260Z,11.10
2019-05-11T18:12:39.148Z,11.00
2019-05-11T18:15:08.302Z,10.90
2019-05-11T18:17:37.246Z,10.90
2019-05-11T18:20:16.939Z,10.90
2019-05-11T18:22:39.068Z,10.70
2019-05-11T18:25:08.888Z,10.70
2019-05-11T18:27:38.607Z,10.70
2019-05-11T18:30:08.840Z,10.60
2019-05-11T18:32:39.469Z,10.50
2019-05-11T18:35:08.513Z,10.40
2019-05-11T18:37:38.924Z,10.30
2019-05-11T18:40:08.521Z,10.20
2019-05-11T18:42:38.313Z,10.20
2019-05-11T18:45:08.337Z,10.10
2019-05-11T18:47:38.179Z,10.00
2019-05-11T18:50:08.014Z,9.90
2019-05-11T18:52:36.635Z,9.80
2019-05-11T18:55:08.160Z,9.70
2019-05-11T18:57:38.366Z,9.60
2019-05-11T19:00:08.327Z,9.50
2019-05-11T19:02:38.519Z,9.50
2019-05-11T19:05:07.597Z,9.40
2019-05-11T19:07:38.567Z,9.30
2019-05-11T19:10:08.603Z,9.20
2019-05-11T19:12:37.695Z,9.10
2019-05-11T19:15:08.304Z,9.10
2019-05-11T19:17:38.475Z,9.00
2019-05-11T19:20:10.155Z,9.00
2019-05-11T19:22:38.995Z,8.90
2019-05-11T19:25:09.298Z,8.90
2019-05-11T19:27:38.705Z,8.80
2019-05-11T19:30:08.187Z,8.70
2019-05-11T19:32:38.317Z,8.70
2019-05-11T19:35:08.855Z,8.60
2019-05-11T19:37:38.755Z,8.50
2019-05-11T19:40:09.319Z,8.40
2019-05-11T19:42:42.694Z,8.40
2019-05-11T19:45:11.360Z,8.30
2019-05-11T19:47:39.865Z,8.30
2019-05-11T19:50:08.782Z,8.20
2019-05-11T19:52:37.526Z,8.20
2019-05-11T19:55:08.525Z,8.00
2019-05-11T19:57:38.620Z,8.00
2019-05-11T20:00:10.082Z,7.90
2019-05-11T20:02:39.037Z,7.80
2019-05-11T20:05:08.034Z,7.80
2019-05-11T20:07:37.823Z,7.80
2019-05-11T20:10:07.962Z,7.70
2019-05-11T20:12:38.233Z,7.70
2019-05-11T20:15:08.222Z,7.60
2019-05-11T20:17:39.192Z,7.60
2019-05-11T20:20:08.898Z,7.50
2019-05-11T20:22:39.037Z,7.50
2019-05-11T20:25:09.741Z,7.50
2019-05-11T20:27:38.806Z,7.40
2019-05-11T20:30:08.660Z,7.40
2019-05-11T20:32:38.881Z,7.40
2019-05-11T20:35:08.498Z,7.40
2019-05-11T20:37:38.413Z,7.30
2019-05-11T20:40:09.232Z,7.30
2019-05-11T20:42:38.186Z,7.20
2019-05-11T20:45:07.728Z,7.20
2019-05-11T20:47:38.153Z,7.20
2019-05-11T20:50:07.912Z,7.10
2019-05-11T20:52:38.793Z,7.10
2019-05-11T20:55:08.974Z,7.10
2019-05-11T20:57:39.283Z,7.10
2019-05-11T21:00:09.063Z,7.00
2019-05-11T21:02:38.205Z,7.00
2019-05-11T21:05:09.157Z,7.00
2019-05-11T21:07:38.910Z,6.90
2019-05-11T21:10:08.914Z,6.90
2019-05-11T21:12:38.716Z,6.80
2019-05-11T21:15:10.926Z,6.80
2019-05-11T21:17:58.853Z,6.80
2019-05-11T21:20:28.735Z,6.70
2019-05-11T21:22:57.945Z,6.70
2019-05-11T21:25:28.658Z,6.70
2019-05-11T21:27:57.974Z,6.70
2019-05-11T21:30:26.717Z,6.60
2019-05-11T21:32:55.184Z,6.60
2019-05-11T21:35:25.412Z,6.50
2019-05-11T21:37:53.879Z,6.50
2019-05-11T21:40:22.343Z,6.40
2019-05-11T21:42:50.941Z,6.40
2019-05-11T21:45:19.532Z,6.40
2019-05-11T21:47:48.913Z,6.40
2019-05-11T21:50:19.095Z,6.40
2019-05-11T21:52:48.436Z,6.40
2019-05-11T21:55:17.164Z,6.40
2019-05-11T21:57:49.434Z,6.30
2019-05-11T22:00:18.689Z,6.30
2019-05-11T22:02:48.480Z,6.20
2019-05-11T22:05:20.200Z,6.20
2019-05-11T22:07:48.975Z,6.20
2019-05-11T22:10:17.956Z,6.20
2019-05-11T22:12:48.841Z,6.10
2019-05-11T22:15:16.781Z,6.10
2019-05-11T22:17:45.236Z,6.00
2019-05-11T22:20:13.999Z,6.00
2019-05-11T22:22:42.459Z,6.00
2019-05-11T22:25:11.215Z,6.00
2019-05-11T22:27:39.731Z,5.90
2019-05-11T22:30:09.499Z,5.80
2019-05-11T22:32:38.690Z,5.90
2019-05-11T22:35:08.544Z,5.90
2019-05-11T22:37:38.598Z,5.90
2019-05-11T22:40:08.407Z,5.80
2019-05-11T22:42:37.616Z,5.80
2019-05-11T22:45:09.702Z,5.80
2019-05-11T22:47:39.780Z,5.70
2019-05-11T22:50:09.193Z,5.70
2019-05-11T22:52:40.441Z,5.70
2019-05-11T22:55:12.084Z,5.70
2019-05-11T22:57:39.558Z,5.70
2019-05-11T23:00:09.927Z,5.70
2019-05-11T23:02:38.532Z,5.70
2019-05-11T23:05:08.559Z,5.70
2019-05-11T23:07:41.298Z,5.70
2019-05-11T23:10:09.753Z,5.60
2019-05-11T23:12:38.751Z,5.70
2019-05-11T23:15:10.313Z,5.60
2019-05-11T23:17:38.968Z,5.60
2019-05-11T23:20:08.011Z,5.60
2019-05-11T23:22:52.331Z,5.70
2019-05-11T23:25:09.348Z,5.70
2019-05-11T23:27:39.316Z,5.70
2019-05-11T23:30:08.876Z,5.70
2019-05-11T23:32:37.824Z,5.70
2019-05-11T23:35:08.444Z,5.80
2019-05-11T23:37:38.692Z,5.80
2019-05-11T23:40:10.436Z,5.80
2019-05-11T23:42:39.085Z,5.80
2019-05-11T23:45:08.681Z,5.80
2019-05-11T23:47:39.260Z,5.70
2019-05-11T23:50:08.407Z,5.70
2019-05-11T23:52:38.023Z,5.60
2019-05-11T23:55:08.351Z,5.60
2019-05-11T23:57:38.090Z,5.60
